Time;durP1;ratioP1;P1;durP2;ratioP2;P2;SDS_P1;SDS_P2;PMS_P1;PMS_P2;Temp;Humidity;BMP_temperature;BMP_pressure;BME280_temperature;BME280_humidity;BME280_pressure;Samples;Min_cycle;Max_cycle;Signal;HPM_P1;HPM_P2
2021/06/08 00:01:54;;;;;;;31.77;28.60;;;17.20;99.90;;;;;;5000833;28;20647;-95
2021/06/08 00:04:20;;;;;;;32.73;29.23;;;17.10;99.90;;;;;;4998096;28;20640;-95
2021/06/08 00:06:50;;;;;;;33.07;29.57;;;17.20;99.90;;;;;;4995005;28;20643;-95
2021/06/08 00:09:16;;;;;;;33.13;29.77;;;17.20;99.90;;;;;;4999225;28;21237;-95
2021/06/08 00:11:42;;;;;;;31.77;28.40;;;17.20;99.90;;;;;;5002197;28;20640;-95
2021/06/08 00:14:09;;;;;;;31.67;28.00;;;17.20;99.90;;;;;;4998133;28;20630;-94
2021/06/08 00:16:36;;;;;;;36.93;33.73;;;17.10;99.90;;;;;;5013683;28;20667;-95
2021/06/08 00:19:02;;;;;;;39.30;35.60;;;17.10;99.90;;;;;;5021167;28;20629;-95
2021/06/08 00:21:31;;;;;;;32.93;29.40;;;17.10;99.90;;;;;;4996929;28;20747;-95
2021/06/08 00:23:59;;;;;;;28.30;25.50;;;17.10;99.90;;;;;;4997313;28;20667;-95
2021/06/08 00:26:33;;;;;;;30.17;26.83;;;17.10;99.90;;;;;;5002276;28;20697;-95
2021/06/08 00:29:00;;;;;;;30.57;27.37;;;17.20;99.90;;;;;;4992256;28;21475;-96
2021/06/08 00:31:31;;;;;;;29.83;26.53;;;17.20;99.90;;;;;;5000551;28;20656;-96
2021/06/08 00:33:57;;;;;;;28.90;25.80;;;17.10;99.90;;;;;;5005297;28;21226;-95
2021/06/08 00:36:23;;;;;;;28.47;25.57;;;17.10;99.90;;;;;;5002312;28;20731;-95
2021/06/08 00:38:50;;;;;;;26.80;24.17;;;17.10;99.90;;;;;;5008161;28;20648;-95
2021/06/08 00:41:30;;;;;;;28.77;25.80;;;17.00;99.90;;;;;;5005191;28;20697;-95
2021/06/08 00:44:00;;;;;;;28.57;25.77;;;17.10;99.90;;;;;;5003231;28;20647;-95
2021/06/08 00:46:31;;;;;;;28.70;25.87;;;17.10;99.90;;;;;;4997970;28;20636;-96
2021/06/08 00:48:58;;;;;;;38.93;35.47;;;17.10;99.90;;;;;;5001879;28;20680;-96
2021/06/08 00:51:24;;;;;;;34.37;28.50;;;17.10;99.90;;;;;;4993529;28;20673;-94
2021/06/08 00:53:52;;;;;;;29.57;25.23;;;17.10;99.90;;;;;;5000574;28;20639;-95
2021/06/08 00:56:20;;;;;;;30.30;26.80;;;17.10;99.90;;;;;;5004193;28;20642;-95
2021/06/08 00:58:48;;;;;;;38.20;34.70;;;17.10;99.90;;;;;;5000564;28;20632;-96
2021/06/08 01:01:14;;;;;;;38.67;34.97;;;17.00;99.90;;;;;;4982341;28;20653;-95
2021/06/08 01:03:41;;;;;;;39.00;35.63;;;17.00;99.90;;;;;;5000246;28;20742;-95
2021/06/08 01:06:07;;;;;;;39.70;35.87;;;17.00;99.90;;;;;;4998530;28;20656;-94
2021/06/08 01:08:34;;;;;;;32.70;28.47;;;17.00;99.90;;;;;;5001800;28;20660;-95
2021/06/08 01:11:11;;;;;;;31.20;27.80;;;17.00;99.90;;;;;;5001467;28;20635;-96
2021/06/08 01:13:40;;;;;;;28.03;25.20;;;17.10;99.90;;;;;;5005254;28;20640;-96
2021/06/08 01:16:08;;;;;;;30.67;26.80;;;17.10;99.90;;;;;;5000594;28;20667;-96
2021/06/08 01:18:35;;;;;;;31.70;28.40;;;17.10;99.90;;;;;;4997187;28;20657;-96
2021/06/08 01:21:05;;;;;;;37.83;30.90;;;17.10;99.90;;;;;;5008743;28;20628;-96
2021/06/08 01:23:32;;;;;;;31.57;26.97;;;17.00;99.90;;;;;;5011791;28;20708;-96
2021/06/08 01:26:13;;;;;;;29.57;26.57;;;17.00;99.90;;;;;;5005768;28;20636;-96
2021/06/08 01:31:36;;;;;;;29.90;25.10;;;17.00;99.90;;;;;;5026688;28;20697;-96
2021/06/08 01:34:05;;;;;;;34.63;28.83;;;17.10;99.90;;;;;;4999208;28;20719;-96
2021/06/08 01:36:38;;;;;;;30.17;27.23;;;17.00;99.90;;;;;;4989688;28;20632;-96
2021/06/08 01:39:06;;;;;;;32.17;28.97;;;17.10;99.90;;;;;;5007359;28;21091;-96
2021/06/08 01:41:42;;;;;;;31.70;28.17;;;17.10;99.90;;;;;;4989244;28;20624;-96
2021/06/08 01:44:14;;;;;;;35.67;27.40;;;17.10;99.90;;;;;;5016441;28;20631;-96
2021/06/08 01:46:40;;;;;;;31.73;28.40;;;17.10;99.90;;;;;;5007511;28;20995;-96
2021/06/08 01:49:07;;;;;;;30.23;27.23;;;17.10;99.90;;;;;;5015149;28;20663;-96
2021/06/08 01:51:47;;;;;;;40.40;36.80;;;17.00;99.90;;;;;;5008440;28;21102;-96
2021/06/08 01:54:21;;;;;;;31.43;28.23;;;17.10;99.90;;;;;;4997482;28;20685;-96
2021/06/08 01:56:59;;;;;;;31.47;28.27;;;17.00;99.90;;;;;;4996452;28;20702;-95
2021/06/08 02:02:46;;;;;;;33.47;27.13;;;17.00;99.90;;;;;;4997667;28;20635;-96
2021/06/08 02:05:23;;;;;;;30.53;27.23;;;17.00;99.90;;;;;;4994913;28;20671;-96
2021/06/08 02:07:59;;;;;;;33.57;30.07;;;17.00;99.90;;;;;;4985689;28;20641;-94
2021/06/08 02:17:39;;;;;;;37.97;34.47;;;17.10;99.90;;;;;;4945206;28;20636;-95
2021/06/08 02:20:10;;;;;;;29.97;26.87;;;17.10;99.90;;;;;;4997229;28;21507;-95
2021/06/08 02:22:39;;;;;;;27.83;24.97;;;17.00;99.90;;;;;;4992023;28;20624;-95
2021/06/08 02:25:10;;;;;;;34.90;31.10;;;17.00;99.90;;;;;;4996248;28;20714;-95
2021/06/08 02:27:37;;;;;;;30.90;27.83;;;17.00;99.90;;;;;;4996514;28;20640;-95
2021/06/08 02:32:49;;;;;;;30.43;27.13;;;17.00;99.90;;;;;;5012987;28;20637;-96
2021/06/08 02:38:11;;;;;;;31.43;27.80;;;17.00;99.90;;;;;;5052851;23;20605;-96
2021/06/08 02:40:41;;;;;;;30.63;27.53;;;17.10;99.90;;;;;;5001026;28;20695;-96
2021/06/08 02:43:10;;;;;;;28.20;25.40;;;17.10;99.90;;;;;;5018100;28;20612;-96
2021/06/08 02:45:37;;;;;;;30.63;27.43;;;17.10;99.90;;;;;;5022282;28;21208;-96
2021/06/08 02:48:08;;;;;;;32.53;29.37;;;17.00;99.90;;;;;;5012156;28;20667;-96
2021/06/08 02:50:38;;;;;;;29.93;26.87;;;17.00;99.90;;;;;;5002068;28;20633;-96
2021/06/08 02:53:37;;;;;;;30.70;27.70;;;17.00;99.90;;;;;;4978372;29;20606;-96
2021/06/08 02:56:09;;;;;;;40.53;28.23;;;17.10;99.90;;;;;;4972549;28;20652;-96
2021/06/08 02:58:44;;;;;;;33.50;30.07;;;17.10;99.90;;;;;;4999053;28;20637;-96
2021/06/08 03:01:51;;;;;;;29.77;26.10;;;17.00;99.90;;;;;;5002723;28;20643;-96
2021/06/08 03:07:48;;;;;;;31.77;28.67;;;17.00;99.90;;;;;;5019384;28;20602;-96
2021/06/08 03:10:42;;;;;;;31.80;27.27;;;17.10;99.90;;;;;;5018430;28;20659;-96
2021/06/08 03:13:12;;;;;;;39.33;35.27;;;17.10;99.90;;;;;;5017315;28;20597;-96
2021/06/08 03:19:08;;;;;;;32.50;29.00;;;17.00;99.90;;;;;;4978430;28;20606;-96
2021/06/08 03:21:38;;;;;;;31.63;28.33;;;17.00;99.90;;;;;;4978142;28;20617;-93
2021/06/08 03:24:08;;;;;;;30.80;27.63;;;17.10;99.90;;;;;;4973141;28;20629;-94
2021/06/08 03:26:36;;;;;;;32.67;28.13;;;17.10;99.90;;;;;;4972882;28;20638;-93
2021/06/08 03:29:09;;;;;;;30.10;26.90;;;17.00;99.90;;;;;;4976459;28;20723;-93
2021/06/08 03:31:40;;;;;;;32.03;28.67;;;17.00;99.90;;;;;;4977636;28;20645;-96
2021/06/08 03:34:14;;;;;;;35.00;29.27;;;17.00;99.90;;;;;;4985180;28;20640;-96
2021/06/08 03:36:53;;;;;;;31.37;26.37;;;17.00;99.90;;;;;;5005627;28;20643;-95
2021/06/08 03:39:22;;;;;;;29.43;26.37;;;17.00;99.90;;;;;;4979872;28;20773;-96
2021/06/08 03:41:50;;;;;;;28.13;25.20;;;17.00;99.90;;;;;;4986390;28;20617;-96
2021/06/08 03:44:22;;;;;;;30.07;26.80;;;17.00;99.90;;;;;;4955047;29;21022;-95
2021/06/08 03:47:13;;;;;;;36.83;33.63;;;17.00;99.90;;;;;;4989997;28;20644;-95
2021/06/08 03:55:28;;;;;;;30.47;27.37;;;17.00;99.90;;;;;;4996024;28;20636;-96
2021/06/08 03:57:59;;;;;;;31.30;28.20;;;17.00;99.90;;;;;;4992544;28;20633;-96
2021/06/08 04:00:33;;;;;;;28.23;25.43;;;17.10;99.90;;;;;;4987263;28;20628;-96
2021/06/08 04:06:01;;;;;;;39.13;35.53;;;17.00;99.90;;;;;;4991855;28;20630;-96
2021/06/08 04:11:44;;;;;;;31.67;26.83;;;17.00;99.90;;;;;;4983566;28;20636;-96
2021/06/08 04:37:04;;;;;;;42.20;38.50;;;17.00;99.90;;;;;;5515117;22;15124044;-95
2021/06/08 04:39:34;;;;;;;41.23;37.43;;;17.10;99.90;;;;;;6161878;23;20165;-96
2021/06/08 04:42:00;;;;;;;30.03;26.83;;;17.20;99.90;;;;;;6159122;23;20584;-96
2021/06/08 04:44:31;;;;;;;31.57;28.07;;;17.10;99.90;;;;;;6152818;23;20668;-96
2021/06/08 04:46:58;;;;;;;32.13;28.83;;;17.10;99.90;;;;;;6119923;23;20680;-96
2021/06/08 04:49:26;;;;;;;29.93;26.90;;;17.30;99.90;;;;;;6119720;23;20601;-96
2021/06/08 04:51:58;;;;;;;29.40;26.17;;;17.20;99.90;;;;;;6120014;23;20601;-95
2021/06/08 04:54:27;;;;;;;38.57;35.07;;;17.20;99.90;;;;;;6120882;23;21033;-95
2021/06/08 04:57:00;;;;;;;37.93;34.67;;;17.20;99.90;;;;;;6109760;23;20605;-92
2021/06/08 04:59:33;;;;;;;30.43;27.33;;;17.30;99.90;;;;;;6108082;23;20522;-95
2021/06/08 05:02:09;;;;;;;39.60;36.00;;;17.30;99.90;;;;;;6111305;23;20581;-96
2021/06/08 05:04:45;;;;;;;30.10;26.87;;;17.40;99.90;;;;;;6109411;23;20633;-95
2021/06/08 05:07:17;;;;;;;32.37;28.60;;;17.40;99.90;;;;;;6108166;23;20608;-94
2021/06/08 05:09:48;;;;;;;30.80;27.60;;;17.30;99.90;;;;;;6109207;23;20581;-94
2021/06/08 05:12:22;;;;;;;40.43;28.60;;;17.40;99.90;;;;;;6109969;23;20605;-93
2021/06/08 05:14:51;;;;;;;30.80;26.90;;;17.40;99.90;;;;;;6110615;23;20616;-93
2021/06/08 05:17:20;;;;;;;29.80;26.97;;;17.40;99.90;;;;;;6106512;23;20600;-92
2021/06/08 05:19:54;;;;;;;31.17;27.77;;;17.30;99.90;;;;;;6114245;23;20546;-95
2021/06/08 05:22:24;;;;;;;30.67;27.57;;;17.50;99.90;;;;;;6114963;23;20581;-94
2021/06/08 05:25:06;;;;;;;28.73;25.77;;;17.40;99.90;;;;;;6113087;23;20641;-96
2021/06/08 05:27:33;;;;;;;37.43;34.07;;;17.50;99.90;;;;;;6110432;23;20617;-95
2021/06/08 05:30:09;;;;;;;28.07;25.17;;;17.50;99.90;;;;;;6122409;23;20581;-96
2021/06/08 05:32:45;;;;;;;32.93;27.47;;;17.40;99.90;;;;;;6125699;23;21138;-96
2021/06/08 05:50:46;;;;;;;27.30;23.73;;;17.70;99.90;;;;;;6178613;23;20484;-96
2021/06/08 05:56:37;;;;;;;26.27;23.67;;;17.80;99.90;;;;;;6159854;23;20532;-95
2021/06/08 05:59:37;;;;;;;26.47;23.77;;;17.90;99.90;;;;;;6159508;23;20552;-96
2021/06/08 06:02:06;;;;;;;26.50;23.80;;;17.90;99.90;;;;;;6165402;23;20612;-96
2021/06/08 06:04:44;;;;;;;27.47;24.80;;;17.90;99.90;;;;;;6163244;23;20727;-96
2021/06/08 06:07:25;;;;;;;25.83;23.13;;;17.80;99.90;;;;;;6165370;23;20529;-96
2021/06/08 06:15:34;;;;;;;27.57;24.77;;;17.80;99.90;;;;;;6176037;23;20599;-96
2021/06/08 06:18:13;;;;;;;27.07;24.27;;;17.80;99.90;;;;;;6177764;23;20584;-96
2021/06/08 06:20:45;;;;;;;29.87;24.63;;;17.80;99.90;;;;;;6179648;23;20634;-95
2021/06/08 06:55:09;;;;;;;27.87;25.30;;;17.90;99.90;;;;;;6144140;23;20612;-96
2021/06/08 06:57:41;;;;;;;27.33;24.50;;;17.90;99.90;;;;;;6156606;23;20591;-93
2021/06/08 07:00:09;;;;;;;26.30;23.73;;;17.90;99.90;;;;;;6155175;23;21046;-94
2021/06/08 07:02:45;;;;;;;26.13;23.47;;;18.00;99.90;;;;;;6155415;23;20592;-93
2021/06/08 07:05:15;;;;;;;28.23;25.57;;;18.10;99.90;;;;;;6154719;23;20640;-94
2021/06/08 07:07:44;;;;;;;27.60;25.00;;;18.00;99.90;;;;;;6155208;23;20560;-95
2021/06/08 07:10:13;;;;;;;28.07;25.40;;;18.10;99.90;;;;;;6155042;23;20871;-94
2021/06/08 07:12:45;;;;;;;29.30;26.40;;;18.00;99.90;;;;;;6154611;23;21054;-92
2021/06/08 07:15:14;;;;;;;26.07;23.17;;;18.00;99.90;;;;;;6154287;23;20764;-96
2021/06/08 07:17:41;;;;;;;32.10;29.30;;;18.10;99.90;;;;;;6156510;23;20891;-94
2021/06/08 07:20:13;;;;;;;30.00;27.17;;;18.10;99.90;;;;;;6155292;23;20580;-92
2021/06/08 07:25:22;;;;;;;26.03;23.70;;;18.30;99.90;;;;;;6162405;23;20708;-94
2021/06/08 07:27:58;;;;;;;26.87;24.47;;;18.30;99.90;;;;;;6161131;23;20604;-94
2021/06/08 07:30:25;;;;;;;26.93;24.43;;;18.40;99.90;;;;;;6158109;23;20584;-95
2021/06/08 07:33:10;;;;;;;27.70;25.00;;;18.40;99.90;;;;;;6159123;23;20592;-95
2021/06/08 07:35:51;;;;;;;26.90;24.20;;;18.50;99.90;;;;;;6158136;23;20618;-94
2021/06/08 07:38:22;;;;;;;30.63;27.70;;;18.60;99.90;;;;;;6156771;23;20568;-95
2021/06/08 07:40:58;;;;;;;27.30;24.90;;;18.80;99.90;;;;;;6155998;23;20586;-94
2021/06/08 07:43:36;;;;;;;29.53;26.77;;;18.70;99.90;;;;;;6156801;23;20642;-96
2021/06/08 07:46:11;;;;;;;29.73;26.93;;;18.60;99.90;;;;;;6156028;23;20635;-95
2021/06/08 07:48:43;;;;;;;31.80;28.77;;;18.70;99.90;;;;;;6155278;23;20623;-96
2021/06/08 07:51:12;;;;;;;29.57;26.87;;;18.60;99.90;;;;;;6156468;23;20636;-96
2021/06/08 07:53:47;;;;;;;30.30;27.27;;;18.60;99.90;;;;;;6155193;23;20628;-96
2021/06/08 07:56:15;;;;;;;29.90;27.30;;;18.50;99.90;;;;;;6155716;23;21139;-96
2021/06/08 07:58:44;;;;;;;29.97;27.33;;;18.50;99.90;;;;;;6156885;23;20712;-94
2021/06/08 08:01:15;;;;;;;30.10;27.40;;;18.40;99.90;;;;;;6158991;23;20583;-94
2021/06/08 08:03:43;;;;;;;31.03;27.97;;;18.40;99.90;;;;;;6161448;23;20652;-96
2021/06/08 08:06:12;;;;;;;28.07;25.30;;;18.50;99.90;;;;;;6156127;23;20612;-95
2021/06/08 08:08:40;;;;;;;31.93;29.33;;;18.50;99.90;;;;;;6156770;23;20584;-96
2021/06/08 08:11:09;;;;;;;29.20;26.03;;;18.60;99.90;;;;;;6155200;23;20664;-95
2021/06/08 08:13:37;;;;;;;32.50;29.60;;;18.50;99.90;;;;;;6155006;23;20612;-95
2021/06/08 08:16:14;;;;;;;28.50;26.00;;;18.30;99.90;;;;;;6153728;23;20592;-94
2021/06/08 08:18:42;;;;;;;31.30;28.13;;;18.40;99.90;;;;;;6156715;23;20900;-96
2021/06/08 08:21:18;;;;;;;30.63;27.83;;;18.50;99.90;;;;;;6156407;23;20592;-96
2021/06/08 08:23:46;;;;;;;29.73;26.97;;;18.60;99.90;;;;;;6154923;23;20618;-96
2021/06/08 08:29:37;;;;;;;32.83;29.13;;;18.60;99.90;;;;;;6153876;23;21072;-95
2021/06/08 08:32:08;;;;;;;33.83;30.80;;;18.60;99.90;;;;;;6153173;23;20670;-95
2021/06/08 08:34:35;;;;;;;34.27;26.93;;;18.60;99.90;;;;;;6154025;23;20616;-95
2021/06/08 08:37:08;;;;;;;33.10;30.13;;;18.60;99.90;;;;;;6152346;23;20577;-94
2021/06/08 08:39:48;;;;;;;34.67;31.50;;;18.50;99.90;;;;;;6152813;23;20675;-95
2021/06/08 08:42:23;;;;;;;32.03;28.60;;;18.60;99.90;;;;;;6154388;23;20643;-96
2021/06/08 08:44:50;;;;;;;31.63;26.97;;;18.60;99.90;;;;;;6154181;23;20644;-94
2021/06/08 08:47:20;;;;;;;31.50;28.57;;;18.70;99.90;;;;;;6153989;23;20576;-96
2021/06/08 08:49:46;;;;;;;29.90;27.20;;;18.80;99.90;;;;;;6153622;23;20592;-95
2021/06/08 08:52:21;;;;;;;32.87;30.03;;;18.90;99.90;;;;;;6154213;23;20605;-95
2021/06/08 08:54:48;;;;;;;30.33;27.63;;;19.00;99.90;;;;;;6157281;23;20615;-96
2021/06/08 08:57:18;;;;;;;32.73;29.63;;;19.20;99.90;;;;;;6161862;23;20631;-95
2021/06/08 08:59:52;;;;;;;31.07;28.37;;;19.00;99.90;;;;;;6165105;23;20607;-96
2021/06/08 09:02:22;;;;;;;31.53;28.50;;;19.20;99.90;;;;;;6160322;23;20647;-96
2021/06/08 09:04:48;;;;;;;29.40;26.67;;;19.50;99.90;;;;;;6160907;23;21005;-96
2021/06/08 09:07:15;;;;;;;32.90;29.90;;;19.80;99.90;;;;;;6159686;23;20580;-96
2021/06/08 09:09:43;;;;;;;31.30;28.50;;;19.90;99.90;;;;;;6160554;23;20683;-96
2021/06/08 09:12:12;;;;;;;30.50;27.80;;;20.00;99.90;;;;;;6159559;23;20695;-96
2021/06/08 09:14:41;;;;;;;32.10;29.23;;;20.10;99.90;;;;;;6163318;23;20639;-94
2021/06/08 09:17:20;;;;;;;32.93;29.97;;;20.10;99.90;;;;;;6163212;23;20599;-95
2021/06/08 09:19:48;;;;;;;30.60;28.00;;;20.30;99.90;;;;;;6157216;23;20576;-95
2021/06/08 09:22:17;;;;;;;30.60;27.90;;;20.40;99.90;;;;;;6156088;23;21098;-95
2021/06/08 09:24:44;;;;;;;30.30;27.67;;;20.30;99.90;;;;;;6153443;23;20687;-96
2021/06/08 09:27:13;;;;;;;32.63;29.90;;;20.30;99.90;;;;;;6153248;23;20607;-95
2021/06/08 09:29:43;;;;;;;31.63;28.83;;;20.50;99.90;;;;;;6154563;23;20804;-95
2021/06/08 09:32:21;;;;;;;32.63;29.77;;;20.50;99.90;;;;;;6154474;23;20588;-95
2021/06/08 09:34:52;;;;;;;35.40;32.30;;;20.50;99.90;;;;;;6154509;23;20586;-96
2021/06/08 09:37:35;;;;;;;31.07;28.43;;;20.30;99.90;;;;;;6154916;23;20616;-96
2021/06/08 09:40:16;;;;;;;34.57;31.50;;;20.40;99.90;;;;;;6154730;23;20584;-96
2021/06/08 09:42:47;;;;;;;32.27;29.60;;;20.30;99.90;;;;;;6155579;23;20603;-95
2021/06/08 09:45:15;;;;;;;32.23;29.43;;;20.50;99.90;;;;;;6156168;23;20608;-96
2021/06/08 09:47:43;;;;;;;33.50;30.60;;;20.60;99.90;;;;;;6154797;23;20647;-94
2021/06/08 09:50:37;;;;;;;34.83;32.10;;;20.90;99.90;;;;;;6157539;23;20612;-96
2021/06/08 09:53:30;;;;;;;34.67;31.77;;;21.00;99.90;;;;;;6158083;23;20595;-96
2021/06/08 09:55:59;;;;;;;33.30;30.40;;;21.10;99.90;;;;;;6157897;23;21125;-96
2021/06/08 09:58:28;;;;;;;33.17;30.40;;;21.00;99.90;;;;;;6159148;23;20599;-96
2021/06/08 10:01:18;;;;;;;34.57;31.57;;;20.80;99.90;;;;;;6158700;23;20580;-96
2021/06/08 10:03:47;;;;;;;34.50;31.40;;;20.70;99.90;;;;;;6159969;23;21101;-96
2021/06/08 10:06:17;;;;;;;33.80;31.13;;;20.80;99.90;;;;;;6161205;23;20643;-96
2021/06/08 10:08:56;;;;;;;34.30;31.50;;;20.90;99.90;;;;;;6157886;23;20576;-96
2021/06/08 10:11:26;;;;;;;35.47;32.47;;;21.20;99.90;;;;;;6158464;23;20604;-96
2021/06/08 10:13:59;;;;;;;35.53;32.63;;;20.90;99.90;;;;;;6158618;23;20615;-96
2021/06/08 10:16:31;;;;;;;35.13;31.80;;;20.90;99.90;;;;;;6158483;23;20635;-96
2021/06/08 10:18:59;;;;;;;34.73;31.90;;;21.00;99.90;;;;;;6158260;23;20584;-96
2021/06/08 10:21:45;;;;;;;34.40;31.47;;;20.80;99.90;;;;;;6175034;23;20599;-96
2021/06/08 10:24:15;;;;;;;35.93;32.90;;;20.80;99.90;;;;;;6177015;23;20608;-96
2021/06/08 10:26:47;;;;;;;32.67;29.73;;;20.60;99.90;;;;;;6160175;23;20623;-96
2021/06/08 10:29:14;;;;;;;33.70;30.73;;;21.00;99.90;;;;;;6158589;23;20643;-96
2021/06/08 10:31:44;;;;;;;33.67;30.80;;;21.10;99.90;;;;;;6158716;23;20611;-96
2021/06/08 10:34:12;;;;;;;32.10;29.03;;;21.50;99.90;;;;;;6158351;23;20581;-96
2021/06/08 10:36:43;;;;;;;31.37;28.77;;;21.40;99.90;;;;;;6159997;23;20616;-96
2021/06/08 10:39:12;;;;;;;30.70;28.13;;;21.60;99.90;;;;;;6161956;23;20683;-96
2021/06/08 10:41:40;;;;;;;31.23;28.80;;;21.50;99.90;;;;;;6160127;23;20583;-96
2021/06/08 10:44:19;;;;;;;30.53;28.00;;;21.70;99.90;;;;;;6163765;23;20611;-94
2021/06/08 10:46:50;;;;;;;31.20;28.40;;;21.50;99.90;;;;;;6156121;23;20631;-96
2021/06/08 10:49:18;;;;;;;33.07;30.17;;;21.60;99.90;;;;;;6156452;23;20565;-96
2021/06/08 10:52:06;;;;;;;32.33;29.87;;;21.50;99.90;;;;;;6156525;23;20671;-96
2021/06/08 10:54:38;;;;;;;31.47;28.97;;;21.50;99.90;;;;;;6156352;23;20661;-95
2021/06/08 10:57:13;;;;;;;32.53;29.83;;;21.60;99.90;;;;;;6156728;23;20699;-96
2021/06/08 10:59:41;;;;;;;34.10;31.43;;;21.60;99.90;;;;;;6158491;23;21291;-94
2021/06/08 11:02:09;;;;;;;34.17;31.27;;;22.00;99.90;;;;;;6156959;23;20958;-93
2021/06/08 11:04:53;;;;;;;31.77;29.27;;;22.10;99.90;;;;;;6156612;23;20628;-95
2021/06/08 11:07:55;;;;;;;33.17;30.23;;;22.30;99.90;;;;;;6157697;23;20603;-95
2021/06/08 11:10:57;;;;;;;31.83;29.30;;;22.40;99.90;;;;;;6152945;23;20642;-96
2021/06/08 11:13:45;;;;;;;30.07;27.80;;;22.40;99.90;;;;;;6033842;23;20594;-96
2021/06/08 11:16:35;;;;;;;31.13;28.43;;;22.40;99.90;;;;;;6145976;23;20585;-96
2021/06/08 11:19:03;;;;;;;29.80;27.57;;;22.20;99.90;;;;;;6154595;23;20612;-96
2021/06/08 11:21:32;;;;;;;30.47;27.57;;;22.30;99.90;;;;;;6153164;23;20604;-95
2021/06/08 11:24:01;;;;;;;30.40;28.17;;;22.10;99.90;;;;;;6153421;23;20589;-95
2021/06/08 11:26:48;;;;;;;31.20;28.70;;;22.30;99.90;;;;;;6153303;23;20686;-95
2021/06/08 11:29:46;;;;;;;32.17;29.67;;;22.10;99.90;;;;;;6152893;23;20930;-95
2021/06/08 11:32:42;;;;;;;29.00;26.77;;;21.70;99.90;;;;;;6153715;23;20681;-95
2021/06/08 11:35:11;;;;;;;32.57;29.97;;;21.90;99.90;;;;;;6151918;23;20612;-96
2021/06/08 11:37:53;;;;;;;29.23;26.73;;;21.90;99.90;;;;;;6152275;23;20907;-95
2021/06/08 11:40:49;;;;;;;29.90;27.60;;;22.00;99.90;;;;;;6151380;23;21161;-95
2021/06/08 11:43:45;;;;;;;30.77;28.37;;;21.90;99.90;;;;;;6084604;23;20608;-96
2021/06/08 11:46:12;;;;;;;28.77;26.60;;;22.00;99.90;;;;;;6150844;23;20620;-95
2021/06/08 11:48:43;;;;;;;33.33;30.20;;;22.10;99.90;;;;;;6148979;23;20604;-95
2021/06/08 11:51:37;;;;;;;31.37;28.47;;;22.40;99.90;;;;;;6151512;23;20564;-95
2021/06/08 11:56:55;;;;;;;28.77;26.30;;;23.00;99.90;;;;;;6156160;23;20604;-95
2021/06/08 11:59:26;;;;;;;31.93;29.23;;;23.20;99.90;;;;;;6152476;23;20592;-95
2021/06/08 12:01:56;;;;;;;31.73;29.13;;;23.60;99.90;;;;;;6154065;23;20600;-96
2021/06/08 12:04:26;;;;;;;27.90;25.60;;;23.60;99.90;;;;;;6153558;23;20608;-96
2021/06/08 12:07:10;;;;;;;28.60;26.37;;;23.80;99.90;;;;;;6152298;23;20580;-95
2021/06/08 12:09:43;;;;;;;26.97;24.60;;;24.00;99.90;;;;;;6152638;23;20589;-96
2021/06/08 12:12:16;;;;;;;27.93;24.97;;;24.10;99.90;;;;;;6154312;23;21151;-95
2021/06/08 12:15:02;;;;;;;29.00;26.70;;;23.70;99.90;;;;;;6154506;23;21095;-95
2021/06/08 12:17:29;;;;;;;30.33;27.90;;;23.70;99.90;;;;;;6162828;23;20587;-95
2021/06/08 12:19:59;;;;;;;29.93;27.43;;;23.80;99.90;;;;;;6164904;23;20585;-96
2021/06/08 12:22:28;;;;;;;28.87;26.57;;;24.00;99.90;;;;;;6153021;23;20581;-96
2021/06/08 12:24:57;;;;;;;28.17;25.93;;;24.70;99.90;;;;;;6158696;23;20616;-96
2021/06/08 12:27:41;;;;;;;28.70;26.50;;;25.00;99.90;;;;;;6153958;23;20691;-96
2021/06/08 12:30:12;;;;;;;28.80;26.13;;;24.80;99.90;;;;;;6152288;23;20987;-96
2021/06/08 12:32:40;;;;;;;27.67;25.43;;;24.30;99.90;;;;;;6152209;23;20675;-96
2021/06/08 12:35:21;;;;;;;25.43;23.50;;;24.40;99.90;;;;;;6152203;23;20616;-96
2021/06/08 12:38:00;;;;;;;25.40;23.53;;;24.10;99.90;;;;;;6151911;23;20568;-96
2021/06/08 12:40:27;;;;;;;24.20;22.40;;;23.90;99.90;;;;;;6165245;23;20565;-96
2021/06/08 12:43:25;;;;;;;26.60;24.60;;;24.20;99.90;;;;;;6166654;23;20647;-96
2021/06/08 12:45:55;;;;;;;26.63;24.20;;;24.70;99.90;;;;;;6161412;23;20636;-96
2021/06/08 12:48:25;;;;;;;26.77;24.60;;;24.50;99.90;;;;;;6170123;23;20540;-96
2021/06/08 12:54:27;;;;;;;23.47;21.73;;;26.40;99.90;;;;;;6174831;23;20572;-96
2021/06/08 12:56:53;;;;;;;24.97;23.13;;;27.20;99.90;;;;;;6168283;23;20647;-96
2021/06/08 12:59:26;;;;;;;24.17;22.13;;;26.30;99.90;;;;;;6161128;23;20655;-96
2021/06/08 13:01:53;;;;;;;27.67;25.57;;;25.70;99.90;;;;;;6158491;23;20545;-96
2021/06/08 13:04:21;;;;;;;26.37;24.37;;;25.70;99.90;;;;;;6160870;23;20627;-96
2021/06/08 13:06:48;;;;;;;23.13;21.60;;;25.30;99.90;;;;;;6163967;23;20660;-96
2021/06/08 13:09:21;;;;;;;24.53;22.83;;;25.60;99.90;;;;;;6168441;23;20668;-96
2021/06/08 13:11:48;;;;;;;25.07;23.27;;;26.20;99.90;;;;;;6181281;23;20655;-96
2021/06/08 13:17:00;;;;;;;20.33;18.93;;;27.30;99.90;;;;;;6152076;23;20605;-96
2021/06/08 13:19:32;;;;;;;20.30;18.90;;;27.40;99.90;;;;;;6150018;23;20585;-96
2021/06/08 13:22:14;;;;;;;23.10;21.30;;;27.10;99.90;;;;;;6150600;23;20669;-96
2021/06/08 13:24:43;;;;;;;20.63;19.23;;;26.30;99.90;;;;;;6148522;23;21354;-96
2021/06/08 13:27:14;;;;;;;21.33;19.70;;;26.60;99.90;;;;;;6152760;23;20565;-96
2021/06/08 13:29:44;;;;;;;18.47;17.20;;;27.30;99.90;;;;;;6153471;23;20577;-96
2021/06/08 13:32:29;;;;;;;18.83;17.30;;;28.10;99.90;;;;;;6153639;23;20571;-96
2021/06/08 13:35:10;;;;;;;19.80;18.40;;;28.20;99.30;;;;;;6148369;23;20640;-96
2021/06/08 13:37:38;;;;;;;23.87;22.27;;;26.70;99.90;;;;;;6141925;23;20584;-96
2021/06/08 13:40:20;;;;;;;22.77;21.07;;;26.30;99.90;;;;;;6136601;23;20668;-95
2021/06/08 13:43:03;;;;;;;19.30;18.00;;;26.40;99.90;;;;;;6147959;23;20620;-96
2021/06/08 13:45:36;;;;;;;20.80;19.30;;;27.10;99.90;;;;;;6153254;23;20640;-96
2021/06/08 13:48:48;;;;;;;20.20;18.60;;;27.80;99.00;;;;;;6152687;23;20558;-96
2021/06/08 13:51:29;;;;;;;20.37;19.07;;;29.00;97.50;;;;;;6154604;23;21021;-96
2021/06/08 13:54:08;;;;;;;21.57;20.10;;;29.70;95.60;;;;;;6151415;23;20597;-96
2021/06/08 13:56:49;;;;;;;20.33;19.10;;;28.80;96.80;;;;;;6152767;23;20684;-96
2021/06/08 14:02:48;;;;;;;20.60;19.20;;;29.30;97.70;;;;;;6152143;23;20521;-96
2021/06/08 14:05:28;;;;;;;17.70;16.60;;;29.90;96.30;;;;;;6145175;23;20621;-96
2021/06/08 14:08:00;;;;;;;18.60;17.40;;;29.60;96.00;;;;;;6135770;23;20646;-96
2021/06/08 14:10:29;;;;;;;21.77;20.27;;;29.70;96.10;;;;;;6147481;23;20588;-96
2021/06/08 14:13:30;;;;;;;18.33;17.13;;;29.10;94.60;;;;;;6152781;23;20652;-96
2021/06/08 14:19:05;;;;;;;18.30;17.10;;;29.70;94.30;;;;;;6140260;23;20578;-96
2021/06/08 14:21:32;;;;;;;17.30;16.20;;;28.50;96.30;;;;;;6130641;23;20585;-96
2021/06/08 14:24:15;;;;;;;17.87;16.60;;;28.50;97.40;;;;;;6128440;23;20592;-96
2021/06/08 14:26:42;;;;;;;19.30;18.10;;;28.30;97.60;;;;;;6136750;23;20604;-96
2021/06/08 14:29:11;;;;;;;17.87;16.47;;;28.20;96.60;;;;;;6143829;23;20569;-96
2021/06/08 14:31:42;;;;;;;18.60;17.23;;;29.30;95.50;;;;;;6145409;23;20667;-96
2021/06/08 14:34:15;;;;;;;17.07;15.77;;;29.70;95.10;;;;;;6144533;23;20580;-96
2021/06/08 14:36:42;;;;;;;15.53;14.50;;;30.00;95.30;;;;;;6141565;23;20703;-96
2021/06/08 14:39:14;;;;;;;16.00;14.87;;;30.00;95.50;;;;;;6140937;23;20601;-96
2021/06/08 14:41:42;;;;;;;14.90;13.90;;;30.80;94.20;;;;;;6138158;23;20616;-96
2021/06/08 14:44:10;;;;;;;16.73;15.43;;;30.90;93.80;;;;;;6142551;23;20597;-96
2021/06/08 14:46:39;;;;;;;16.13;14.83;;;30.40;92.30;;;;;;6139658;23;20614;-96
2021/06/08 14:49:12;;;;;;;15.27;14.13;;;30.20;93.50;;;;;;6138094;23;20564;-96
2021/06/08 14:51:41;;;;;;;14.20;13.20;;;31.00;92.00;;;;;;6136813;23;21129;-96
2021/06/08 14:54:08;;;;;;;15.37;14.20;;;31.60;90.90;;;;;;6136568;23;20678;-96
2021/06/08 14:56:38;;;;;;;15.30;14.20;;;30.70;92.40;;;;;;6134236;23;20960;-96
2021/06/08 14:59:05;;;;;;;15.23;14.23;;;30.60;92.20;;;;;;6135324;23;20600;-96
2021/06/08 15:01:39;;;;;;;15.70;14.50;;;31.20;91.10;;;;;;6134175;23;20624;-96
2021/06/08 15:06:57;;;;;;;14.93;14.00;;;31.40;91.20;;;;;;6147582;23;20593;-96
2021/06/08 15:09:24;;;;;;;15.50;14.50;;;31.20;91.90;;;;;;6137334;23;21093;-96
2021/06/08 15:11:52;;;;;;;16.00;14.90;;;31.20;91.10;;;;;;6124663;23;20593;-96
2021/06/08 15:14:20;;;;;;;15.83;14.73;;;29.20;94.80;;;;;;6127660;23;20675;-96
2021/06/08 15:16:48;;;;;;;16.03;14.83;;;29.50;95.50;;;;;;6131939;23;20705;-96